createdAt,value
2022-08-25T00:00:27.978Z,1.20
2022-08-25T00:01:29.703Z,1.40
2022-08-25T00:02:28.003Z,1.20
2022-08-25T00:03:27.999Z,1.20
2022-08-25T00:04:28.895Z,1.30
2022-08-25T00:05:29.184Z,1.20
2022-08-25T00:06:27.872Z,1.30
2022-08-25T00:07:27.865Z,1.60
2022-08-25T00:08:27.862Z,1.20
2022-08-25T00:09:27.881Z,1.70
2022-08-25T00:10:27.852Z,1.20
2022-08-25T00:11:27.802Z,1.30
2022-08-25T00:12:27.798Z,1.10
2022-08-25T00:13:27.825Z,1.20
2022-08-25T00:14:27.772Z,1.40
2022-08-25T00:15:27.793Z,1.30
2022-08-25T00:16:27.774Z,1.60
2022-08-25T00:17:27.735Z,1.90
2022-08-25T00:18:27.756Z,1.20
2022-08-25T00:19:27.728Z,1.50
2022-08-25T00:20:27.722Z,1.50
2022-08-25T00:21:27.685Z,1.70
2022-08-25T00:22:27.682Z,1.10
2022-08-25T00:23:27.656Z,1.40
2022-08-25T00:24:27.666Z,1.50
2022-08-25T00:25:27.635Z,1.10
2022-08-25T00:26:27.646Z,1.40
2022-08-25T00:27:27.615Z,1.10
2022-08-25T00:28:27.606Z,1.20
2022-08-25T00:29:27.606Z,1.00
2022-08-25T00:30:27.590Z,1.10
2022-08-25T00:31:38.278Z,1.10
2022-08-25T00:32:28.557Z,1.50
2022-08-25T00:33:27.557Z,1.40
2022-08-25T00:34:27.580Z,1.20
2022-08-25T00:35:27.524Z,1.10
2022-08-25T00:36:27.515Z,1.30
2022-08-25T00:37:27.503Z,1.40
2022-08-25T00:38:27.487Z,1.10
2022-08-25T00:39:27.469Z,1.30
2022-08-25T00:40:27.538Z,1.30
2022-08-25T00:41:27.449Z,1.10
2022-08-25T00:42:27.451Z,1.70
2022-08-25T00:43:27.450Z,1.40
2022-08-25T00:44:27.425Z,1.30
2022-08-25T00:45:27.427Z,1.50
2022-08-25T00:46:27.442Z,1.50
2022-08-25T00:47:27.382Z,1.10
2022-08-25T00:48:27.379Z,1.40
2022-08-25T00:49:27.356Z,1.40
2022-08-25T00:50:27.361Z,1.40
2022-08-25T00:51:27.330Z,1.50
2022-08-25T00:52:27.323Z,1.30
2022-08-25T00:53:27.310Z,1.30
2022-08-25T00:54:27.313Z,1.20
2022-08-25T00:55:27.287Z,1.10
2022-08-25T00:56:27.297Z,1.50
2022-08-25T00:57:34.142Z,1.20
2022-08-25T00:58:28.262Z,1.30
2022-08-25T00:59:27.251Z,1.60
2022-08-25T01:00:27.231Z,1.30
2022-08-25T01:01:27.296Z,1.40
2022-08-25T01:02:27.239Z,1.40
2022-08-25T01:03:33.161Z,1.60
2022-08-25T01:04:28.187Z,1.20
2022-08-25T01:05:27.170Z,1.20
2022-08-25T01:06:27.188Z,1.20
2022-08-25T01:07:27.147Z,1.20
2022-08-25T01:08:27.144Z,1.70
2022-08-25T01:09:27.119Z,1.60
2022-08-25T01:10:27.119Z,1.20
2022-08-25T01:11:27.116Z,1.10
2022-08-25T01:12:27.087Z,1.30
2022-08-25T01:13:27.077Z,1.40
2022-08-25T01:14:27.065Z,1.60
2022-08-25T01:15:27.118Z,1.30
2022-08-25T01:16:27.055Z,2.20
2022-08-25T01:17:27.056Z,1.60
2022-08-25T01:18:27.021Z,1.30
2022-08-25T01:19:27.004Z,1.40
2022-08-25T01:20:29.202Z,1.20
2022-08-25T01:21:26.977Z,1.40
2022-08-25T01:22:26.994Z,1.40
2022-08-25T01:23:26.965Z,1.50
2022-08-25T01:24:26.950Z,1.90
2022-08-25T01:25:26.929Z,1.40
2022-08-25T01:26:30.553Z,1.50
2022-08-25T01:27:26.935Z,1.30
2022-08-25T01:28:26.902Z,1.30
2022-08-25T01:29:26.912Z,1.20
2022-08-25T01:30:26.884Z,1.10
2022-08-25T01:31:26.905Z,1.00
2022-08-25T01:32:26.877Z,1.10
2022-08-25T01:33:26.838Z,1.20
2022-08-25T01:34:26.836Z,1.20
2022-08-25T01:35:26.818Z,1.40
2022-08-25T01:36:26.800Z,1.10
2022-08-25T01:37:26.812Z,1.10
2022-08-25T01:38:26.810Z,1.10
2022-08-25T01:39:26.768Z,1.20
2022-08-25T01:40:26.823Z,1.20
2022-08-25T01:41:26.769Z,1.60
2022-08-25T01:42:26.767Z,1.20
2022-08-25T01:43:26.737Z,1.30
2022-08-25T01:44:26.725Z,1.10
2022-08-25T01:45:26.703Z,1.10
2022-08-25T01:46:26.792Z,1.20
2022-08-25T01:47:26.690Z,1.10
2022-08-25T01:48:26.676Z,1.30
2022-08-25T01:49:26.662Z,1.50
2022-08-25T01:50:26.651Z,1.10
2022-08-25T01:51:26.631Z,1.10
2022-08-25T01:52:26.647Z,1.30
2022-08-25T01:53:26.605Z,1.40
2022-08-25T01:54:26.603Z,2.00
2022-08-25T01:55:26.598Z,1.10
2022-08-25T01:56:26.583Z,1.30
2022-08-25T01:57:26.561Z,1.20
2022-08-25T01:58:26.568Z,1.40
2022-08-25T01:59:26.552Z,1.80
2022-08-25T02:00:26.533Z,1.70
2022-08-25T02:01:26.576Z,1.30
2022-08-25T02:02:26.578Z,1.80
2022-08-25T02:03:26.521Z,1.30
2022-08-25T02:04:26.485Z,2.10
2022-08-25T02:05:26.475Z,1.20
2022-08-25T02:06:28.870Z,1.20
2022-08-25T02:07:26.444Z,1.90
2022-08-25T02:08:26.439Z,1.40
2022-08-25T02:09:26.435Z,1.40
2022-08-25T02:10:26.421Z,1.90
2022-08-25T02:11:26.403Z,2.10
2022-08-25T02:12:26.385Z,1.50
2022-08-25T02:13:31.173Z,1.30
2022-08-25T02:14:27.376Z,1.20
2022-08-25T02:15:26.364Z,2.20
2022-08-25T02:16:26.405Z,1.30
2022-08-25T02:17:26.330Z,1.10
2022-08-25T02:18:26.325Z,1.50
2022-08-25T02:19:26.328Z,1.50
2022-08-25T02:20:26.322Z,1.20
2022-08-25T02:21:26.306Z,1.20
2022-08-25T02:22:26.280Z,1.70
2022-08-25T02:23:26.276Z,2.30
2022-08-25T02:24:26.249Z,1.40
2022-08-25T02:25:26.257Z,1.10
2022-08-25T02:26:26.232Z,1.60
2022-08-25T02:27:26.221Z,1.20
2022-08-25T02:28:26.224Z,1.50
2022-08-25T02:29:26.196Z,1.30
2022-08-25T02:30:26.263Z,1.40
2022-08-25T02:31:26.198Z,1.30
2022-08-25T02:32:26.168Z,1.20
2022-08-25T02:33:26.179Z,1.00
2022-08-25T02:34:26.129Z,1.10
2022-08-25T02:35:26.130Z,1.10
2022-08-25T02:36:26.139Z,1.80
2022-08-25T02:37:26.104Z,1.20
2022-08-25T02:38:26.090Z,1.10
2022-08-25T02:39:26.091Z,1.30
2022-08-25T02:40:26.088Z,1.40
2022-08-25T02:41:31.220Z,1.20
2022-08-25T02:42:27.054Z,1.20
2022-08-25T02:43:26.041Z,1.10
2022-08-25T02:44:26.017Z,1.10
2022-08-25T02:45:26.021Z,1.40
2022-08-25T02:46:26.049Z,1.20
2022-08-25T02:47:27.016Z,1.30
2022-08-25T02:48:25.972Z,1.20
2022-08-25T02:49:25.961Z,1.00
2022-08-25T02:50:25.956Z,1.50
2022-08-25T02:51:25.947Z,1.40
2022-08-25T02:52:25.939Z,1.30
2022-08-25T02:53:25.915Z,1.50
2022-08-25T02:54:25.914Z,1.10
2022-08-25T02:55:25.893Z,1.20
2022-08-25T02:56:25.888Z,1.50
2022-08-25T02:57:25.901Z,1.40
2022-08-25T02:58:25.863Z,1.20
2022-08-25T02:59:25.848Z,1.20
2022-08-25T03:00:25.824Z,1.20
2022-08-25T03:01:28.698Z,1.60
2022-08-25T03:02:25.832Z,1.10
2022-08-25T03:03:25.809Z,1.20
2022-08-25T03:04:25.823Z,1.40
2022-08-25T03:05:25.788Z,1.20
2022-08-25T03:06:25.763Z,1.40
2022-08-25T03:07:25.777Z,1.20
2022-08-25T03:08:25.772Z,1.30
2022-08-25T03:09:25.752Z,1.00
2022-08-25T03:10:25.749Z,1.30
2022-08-25T03:11:25.706Z,1.30
2022-08-25T03:12:25.715Z,1.10
2022-08-25T03:13:25.735Z,1.20
2022-08-25T03:14:25.698Z,1.10
2022-08-25T03:15:25.707Z,1.20
2022-08-25T03:16:27.615Z,1.10
2022-08-25T03:17:25.646Z,2.00
2022-08-25T03:18:25.634Z,1.50
2022-08-25T03:19:25.635Z,1.20
2022-08-25T03:20:25.597Z,1.30
2022-08-25T03:21:25.586Z,1.20
2022-08-25T03:22:25.571Z,1.10
2022-08-25T03:23:25.577Z,1.50
2022-08-25T03:24:25.589Z,2.00
2022-08-25T03:25:25.550Z,1.10
2022-08-25T03:26:25.530Z,1.50
2022-08-25T03:27:25.549Z,1.40
2022-08-25T03:28:29.973Z,1.20
2022-08-25T03:29:25.517Z,1.10
2022-08-25T03:30:25.479Z,1.50
2022-08-25T03:31:25.520Z,1.20
2022-08-25T03:32:25.457Z,1.50
2022-08-25T03:33:25.450Z,1.30
2022-08-25T03:34:25.461Z,1.40
2022-08-25T03:35:25.438Z,1.70
2022-08-25T03:36:25.420Z,1.20
2022-08-25T03:37:25.406Z,1.40
2022-08-25T03:38:25.421Z,1.30
2022-08-25T03:39:25.383Z,1.90
2022-08-25T03:40:25.468Z,1.20
2022-08-25T03:41:27.016Z,1.50
2022-08-25T03:42:25.343Z,1.40
2022-08-25T03:43:25.323Z,1.30
2022-08-25T03:44:25.321Z,1.40
2022-08-25T03:45:25.444Z,1.30
2022-08-25T03:46:25.299Z,1.10
2022-08-25T03:47:25.293Z,1.10
2022-08-25T03:48:25.285Z,1.30
2022-08-25T03:49:25.264Z,1.30
2022-08-25T03:50:25.247Z,2.50
2022-08-25T03:51:25.257Z,1.40
2022-08-25T03:52:25.224Z,1.40
2022-08-25T03:53:25.220Z,1.50
2022-08-25T03:54:25.208Z,1.10
2022-08-25T03:55:25.185Z,1.10
2022-08-25T03:56:25.201Z,1.40
2022-08-25T03:57:25.175Z,2.20
2022-08-25T03:58:25.183Z,1.40
2022-08-25T03:59:25.150Z,1.10
2022-08-25T04:00:25.135Z,1.30
2022-08-25T04:01:25.189Z,1.00
2022-08-25T04:02:25.193Z,1.20
2022-08-25T04:03:25.124Z,1.30
2022-08-25T04:04:25.085Z,1.40
2022-08-25T04:05:25.097Z,1.50
2022-08-25T04:06:25.062Z,1.10
2022-08-25T04:07:25.066Z,1.10
2022-08-25T04:08:25.046Z,1.30
2022-08-25T04:09:25.027Z,1.90
2022-08-25T04:10:25.008Z,1.40
2022-08-25T04:11:25.005Z,1.80
2022-08-25T04:12:24.997Z,1.40
2022-08-25T04:13:24.991Z,1.50
2022-08-25T04:14:24.958Z,1.70
2022-08-25T04:15:24.956Z,1.60
2022-08-25T04:16:24.988Z,1.50
2022-08-25T04:17:24.946Z,1.40
2022-08-25T04:18:24.929Z,1.20
2022-08-25T04:19:24.917Z,1.30
2022-08-25T04:20:24.893Z,1.30
2022-08-25T04:21:24.881Z,1.20
2022-08-25T04:22:24.881Z,1.20
2022-08-25T04:23:24.859Z,1.00
2022-08-25T04:24:24.853Z,1.20
2022-08-25T04:25:24.870Z,1.50
2022-08-25T04:26:24.819Z,1.10
2022-08-25T04:27:25.559Z,1.20
2022-08-25T04:28:24.802Z,1.40
2022-08-25T04:29:24.789Z,1.80
2022-08-25T04:30:24.784Z,1.80
2022-08-25T04:31:24.875Z,2.10
2022-08-25T04:32:24.771Z,1.50
2022-08-25T04:33:24.747Z,1.20
2022-08-25T04:34:29.931Z,1.30
2022-08-25T04:35:25.740Z,1.40
2022-08-25T04:36:24.716Z,1.30
2022-08-25T04:37:24.729Z,1.50
2022-08-25T04:38:24.678Z,1.30
2022-08-25T04:39:24.673Z,1.80
2022-08-25T04:40:28.725Z,1.50
2022-08-25T04:41:24.652Z,1.60
2022-08-25T04:42:24.669Z,1.40
2022-08-25T04:43:24.625Z,1.30
2022-08-25T04:44:24.612Z,1.40
2022-08-25T04:45:24.675Z,1.10
2022-08-25T04:46:24.640Z,1.20
2022-08-25T04:47:24.596Z,1.30
2022-08-25T04:48:24.562Z,1.20
2022-08-25T04:49:24.570Z,1.80
2022-08-25T04:50:24.547Z,1.30
2022-08-25T04:51:24.541Z,1.20
2022-08-25T04:52:24.542Z,2.00
2022-08-25T04:53:24.514Z,1.50
2022-08-25T04:54:24.495Z,1.30
2022-08-25T04:55:24.484Z,1.70
2022-08-25T04:56:24.476Z,1.90
2022-08-25T04:57:24.478Z,1.90
2022-08-25T04:58:24.455Z,2.30
2022-08-25T04:59:24.446Z,1.60
2022-08-25T05:00:25.425Z,1.90
2022-08-25T05:01:24.495Z,1.80
2022-08-25T05:02:24.425Z,1.10
2022-08-25T05:03:24.409Z,1.50
2022-08-25T05:04:27.658Z,1.30
2022-08-25T05:05:24.367Z,1.60
2022-08-25T05:06:24.349Z,1.30
2022-08-25T05:07:24.369Z,1.20
2022-08-25T05:08:24.333Z,1.70
2022-08-25T05:09:25.103Z,1.40
2022-08-25T05:10:24.318Z,1.30
2022-08-25T05:11:24.309Z,1.70
2022-08-25T05:12:24.305Z,1.90
2022-08-25T05:13:24.270Z,1.30
2022-08-25T05:14:26.355Z,1.20
2022-08-25T05:15:24.258Z,1.30
2022-08-25T05:16:24.281Z,1.70
2022-08-25T05:17:24.259Z,1.20
2022-08-25T05:18:24.222Z,1.20
2022-08-25T05:19:24.417Z,1.50
2022-08-25T05:20:24.201Z,1.40
2022-08-25T05:21:24.188Z,1.30
2022-08-25T05:22:24.179Z,1.50
2022-08-25T05:23:24.156Z,1.70
2022-08-25T05:24:24.150Z,1.40
2022-08-25T05:25:24.157Z,1.70
2022-08-25T05:26:24.122Z,1.40
2022-08-25T05:27:24.138Z,1.60
2022-08-25T05:28:24.103Z,2.10
2022-08-25T05:29:24.091Z,1.50
2022-08-25T05:30:24.080Z,2.20
2022-08-25T05:31:24.141Z,2.30
2022-08-25T05:32:24.082Z,2.50
2022-08-25T05:33:24.050Z,1.80
2022-08-25T05:34:24.035Z,1.80
2022-08-25T05:35:24.030Z,1.60
2022-08-25T05:36:24.011Z,1.50
2022-08-25T05:37:24.018Z,1.40
2022-08-25T05:38:24.010Z,2.40
2022-08-25T05:39:23.973Z,2.40
2022-08-25T05:40:24.034Z,2.00
2022-08-25T05:41:23.952Z,1.80
2022-08-25T05:42:23.953Z,1.70
2022-08-25T05:43:23.933Z,2.00
2022-08-25T05:44:23.922Z,1.40
2022-08-25T05:45:23.928Z,1.50
2022-08-25T05:46:23.882Z,1.70
2022-08-25T05:47:23.922Z,2.10
2022-08-25T05:48:23.875Z,2.20
2022-08-25T05:49:23.870Z,1.50
2022-08-25T05:50:23.835Z,1.20
2022-08-25T05:51:23.838Z,1.40
2022-08-25T05:52:23.841Z,2.10
2022-08-25T05:53:23.822Z,2.40
2022-08-25T05:54:23.803Z,3.50
2022-08-25T05:55:23.793Z,2.20
2022-08-25T05:56:23.778Z,1.70
2022-08-25T05:57:23.787Z,1.90
2022-08-25T05:58:23.759Z,1.60
2022-08-25T05:59:23.754Z,2.90
2022-08-25T06:00:23.746Z,1.90
2022-08-25T06:01:23.781Z,1.40
2022-08-25T06:02:23.722Z,2.20
2022-08-25T06:03:23.752Z,1.40
2022-08-25T06:04:23.698Z,2.10
2022-08-25T06:05:23.674Z,2.00
2022-08-25T06:06:23.667Z,1.80
2022-08-25T06:07:23.681Z,1.70
2022-08-25T06:08:23.632Z,1.70
2022-08-25T06:09:23.627Z,1.70
2022-08-25T06:10:23.628Z,3.20
2022-08-25T06:11:23.638Z,3.30
2022-08-25T06:12:23.638Z,2.20
2022-08-25T06:13:28.629Z,2.30
2022-08-25T06:14:24.572Z,2.10
2022-08-25T06:15:23.573Z,1.90
2022-08-25T06:16:23.591Z,1.90
2022-08-25T06:17:23.554Z,2.20
2022-08-25T06:18:23.524Z,1.80
2022-08-25T06:19:23.783Z,1.80
2022-08-25T06:20:25.419Z,1.70
2022-08-25T06:21:23.482Z,2.60
2022-08-25T06:22:23.511Z,2.20
2022-08-25T06:23:23.479Z,1.80
2022-08-25T06:24:23.471Z,1.70
2022-08-25T06:25:23.439Z,2.90
2022-08-25T06:26:23.427Z,2.70
2022-08-25T06:27:23.441Z,2.30
2022-08-25T06:28:23.423Z,2.10
2022-08-25T06:29:23.383Z,2.00
2022-08-25T06:30:25.742Z,2.80
2022-08-25T06:31:24.411Z,1.90
2022-08-25T06:32:23.384Z,2.00
2022-08-25T06:33:23.344Z,3.00
2022-08-25T06:34:23.982Z,2.70
2022-08-25T06:35:23.329Z,2.70
2022-08-25T06:36:23.311Z,2.60
2022-08-25T06:37:25.162Z,2.60
2022-08-25T06:38:23.289Z,2.30
2022-08-25T06:39:23.271Z,2.40
2022-08-25T06:40:23.303Z,2.20
2022-08-25T06:41:23.257Z,2.00
2022-08-25T06:42:23.266Z,2.20
2022-08-25T06:43:23.241Z,2.10
2022-08-25T06:44:23.214Z,1.80
2022-08-25T06:45:23.255Z,1.50
2022-08-25T06:46:23.267Z,2.40
2022-08-25T06:47:24.283Z,2.00
2022-08-25T06:48:23.205Z,2.40
2022-08-25T06:49:23.163Z,1.90
2022-08-25T06:50:23.158Z,2.10
2022-08-25T06:51:23.162Z,2.00
2022-08-25T06:52:29.195Z,2.00
2022-08-25T06:53:24.143Z,2.20
2022-08-25T06:54:23.107Z,3.40
2022-08-25T06:55:23.090Z,2.20
2022-08-25T06:56:23.092Z,2.00
2022-08-25T06:57:23.094Z,1.90
2022-08-25T06:58:23.060Z,1.90
2022-08-25T06:59:23.059Z,2.00
2022-08-25T07:00:23.052Z,1.50
2022-08-25T07:01:25.965Z,2.70
2022-08-25T07:02:23.077Z,2.40
2022-08-25T07:04:22.999Z,1.90
2022-08-25T07:05:33.416Z,1.50
2022-08-25T07:06:23.973Z,1.90
2022-08-25T07:07:22.971Z,1.90
2022-08-25T07:08:22.954Z,2.40
2022-08-25T07:09:22.936Z,1.80
2022-08-25T07:10:22.935Z,1.80
2022-08-25T07:11:22.943Z,2.20
2022-08-25T07:12:22.930Z,1.40
2022-08-25T07:13:22.885Z,1.20
2022-08-25T07:14:22.883Z,1.70
2022-08-25T07:15:22.874Z,2.70
2022-08-25T07:16:22.908Z,2.00
2022-08-25T07:17:23.854Z,2.60
2022-08-25T07:18:22.840Z,1.50
2022-08-25T07:19:22.827Z,1.90
2022-08-25T07:21:25.011Z,1.60
2022-08-25T07:22:23.831Z,1.40
2022-08-25T07:23:22.807Z,1.60
2022-08-25T07:24:22.776Z,1.40
2022-08-25T07:25:22.815Z,1.50
2022-08-25T07:26:38.935Z,1.60
2022-08-25T07:27:23.751Z,1.70
2022-08-25T07:28:22.736Z,1.40
2022-08-25T07:29:32.408Z,1.40
2022-08-25T07:30:23.774Z,1.20
2022-08-25T07:31:22.760Z,1.50
2022-08-25T07:32:23.681Z,1.90
2022-08-25T07:33:22.664Z,1.40
2022-08-25T07:34:22.662Z,1.70
2022-08-25T07:35:24.092Z,1.80
2022-08-25T07:36:22.646Z,1.70
2022-08-25T07:38:23.617Z,1.40
2022-08-25T07:39:22.616Z,1.90
2022-08-25T07:40:22.847Z,1.50
2022-08-25T07:41:22.574Z,1.60
2022-08-25T07:42:22.580Z,1.80
2022-08-25T07:43:22.568Z,1.70
2022-08-25T07:44:22.542Z,1.60
2022-08-25T07:45:22.529Z,1.50
2022-08-25T07:46:22.526Z,1.50
2022-08-25T07:47:23.113Z,2.70
2022-08-25T07:48:22.497Z,1.90
2022-08-25T07:49:23.081Z,2.10
2022-08-25T07:50:22.547Z,1.30
2022-08-25T07:51:22.552Z,1.60
2022-08-25T07:52:22.504Z,1.50
2022-08-25T07:53:22.739Z,1.50
2022-08-25T07:54:22.433Z,1.70
2022-08-25T07:55:23.433Z,1.80
2022-08-25T07:56:22.437Z,1.70
2022-08-25T07:57:22.418Z,1.70
2022-08-25T07:58:22.381Z,1.60
2022-08-25T07:59:22.386Z,1.70
2022-08-25T08:00:22.368Z,1.80
2022-08-25T08:01:22.386Z,1.50
2022-08-25T08:02:22.382Z,2.30
2022-08-25T08:03:42.102Z,1.90
2022-08-25T08:04:23.322Z,1.90
2022-08-25T08:05:23.994Z,2.30
2022-08-25T08:06:22.313Z,1.60
2022-08-25T08:07:22.930Z,1.80
2022-08-25T08:08:22.289Z,1.70
2022-08-25T08:09:22.267Z,1.80
2022-08-25T08:10:54.184Z,1.50
2022-08-25T08:11:23.237Z,1.60
2022-08-25T08:12:22.245Z,1.90
2022-08-25T08:13:22.254Z,1.70
2022-08-25T08:14:22.219Z,2.10
2022-08-25T08:15:22.191Z,1.80
2022-08-25T08:16:22.249Z,1.80
2022-08-25T08:17:22.180Z,2.00
2022-08-25T08:18:22.183Z,2.00
2022-08-25T08:19:23.161Z,2.00
2022-08-25T08:20:23.278Z,1.70
2022-08-25T08:21:22.134Z,1.80
2022-08-25T08:22:22.154Z,2.00
2022-08-25T08:23:22.126Z,2.10
2022-08-25T08:24:40.886Z,1.80
2022-08-25T08:25:26.453Z,2.00
2022-08-25T08:26:22.513Z,1.80
2022-08-25T08:27:23.066Z,2.90
2022-08-25T08:28:22.067Z,2.50
2022-08-25T08:29:22.325Z,1.70
2022-08-25T08:30:22.037Z,1.60
2022-08-25T08:31:22.050Z,1.90
2022-08-25T08:32:23.828Z,1.70
2022-08-25T08:33:22.995Z,1.60
2022-08-25T08:34:24.853Z,1.60
2022-08-25T08:35:21.972Z,1.60
2022-08-25T08:36:21.963Z,1.70
2022-08-25T08:37:22.929Z,2.00
2022-08-25T08:38:26.871Z,2.00
2022-08-25T08:39:23.011Z,2.30
2022-08-25T08:40:22.017Z,2.40
2022-08-25T08:41:22.912Z,2.20
2022-08-25T08:42:21.895Z,2.00
2022-08-25T08:43:21.906Z,2.20
2022-08-25T08:44:21.880Z,2.20
2022-08-25T08:45:21.911Z,2.30
2022-08-25T08:46:21.908Z,2.00
2022-08-25T08:47:22.443Z,2.00
2022-08-25T08:48:21.835Z,2.20
2022-08-25T08:49:21.835Z,2.20
2022-08-25T08:50:27.770Z,1.70
2022-08-25T08:51:23.011Z,1.90
2022-08-25T08:52:21.815Z,2.00
2022-08-25T08:53:21.775Z,1.80
2022-08-25T08:54:23.051Z,2.10
2022-08-25T08:55:21.777Z,2.00
2022-08-25T08:56:21.755Z,1.80
2022-08-25T08:57:21.735Z,2.10
2022-08-25T08:58:26.122Z,2.30
2022-08-25T08:59:21.746Z,1.70
2022-08-25T09:00:21.726Z,2.10
2022-08-25T09:01:21.722Z,2.20
2022-08-25T09:02:38.676Z,1.90
2022-08-25T09:03:22.733Z,2.40
2022-08-25T09:04:21.697Z,2.20
2022-08-25T09:05:21.713Z,2.10
2022-08-25T09:06:21.641Z,2.20
2022-08-25T09:07:21.655Z,2.10
2022-08-25T09:08:21.607Z,2.30
2022-08-25T09:09:21.611Z,2.80
2022-08-25T09:10:21.639Z,2.10
2022-08-25T09:11:21.593Z,2.10
2022-08-25T09:12:21.588Z,2.00
2022-08-25T09:13:21.580Z,2.60
2022-08-25T09:14:21.549Z,1.90
2022-08-25T09:15:21.544Z,2.30
2022-08-25T09:16:31.795Z,1.70
2022-08-25T09:17:22.511Z,2.00
2022-08-25T09:18:21.497Z,2.30
2022-08-25T09:19:23.563Z,2.30
2022-08-25T09:20:21.539Z,2.40
2022-08-25T09:21:21.480Z,1.90
2022-08-25T09:22:33.677Z,2.20
2022-08-25T09:23:22.458Z,3.30
2022-08-25T09:24:21.448Z,2.40
2022-08-25T09:25:39.663Z,1.90
2022-08-25T09:26:22.405Z,2.00
2022-08-25T09:27:21.414Z,2.10
2022-08-25T09:28:21.387Z,1.90
2022-08-25T09:29:21.375Z,2.10
2022-08-25T09:30:21.374Z,2.00
2022-08-25T09:31:21.412Z,2.00
2022-08-25T09:32:23.980Z,2.40
2022-08-25T09:33:21.469Z,2.00
2022-08-25T09:34:21.332Z,1.90
2022-08-25T09:35:21.335Z,2.00
2022-08-25T09:36:21.316Z,2.00
2022-08-25T09:37:21.283Z,2.00
2022-08-25T09:38:21.274Z,1.90
2022-08-25T09:39:21.346Z,2.20
2022-08-25T09:40:21.308Z,2.00
2022-08-25T09:41:21.238Z,1.80
2022-08-25T09:42:23.814Z,2.20
2022-08-25T09:43:21.223Z,2.80
2022-08-25T09:44:21.236Z,2.10
2022-08-25T09:45:21.200Z,2.60
2022-08-25T09:46:21.257Z,2.70
2022-08-25T09:47:21.178Z,2.30
2022-08-25T09:48:21.170Z,1.90
2022-08-25T09:49:21.163Z,1.90
2022-08-25T09:50:21.141Z,1.80
2022-08-25T09:51:21.141Z,2.50
2022-08-25T09:52:21.146Z,2.20
2022-08-25T09:53:21.828Z,1.90
2022-08-25T09:54:21.119Z,1.90
2022-08-25T09:55:21.093Z,1.70
2022-08-25T09:56:21.085Z,2.60
2022-08-25T09:57:21.072Z,1.70
2022-08-25T09:58:22.145Z,2.30
2022-08-25T09:59:21.089Z,2.00
2022-08-25T10:00:22.037Z,1.70
2022-08-25T10:01:21.045Z,1.90
2022-08-25T10:02:21.033Z,1.70
2022-08-25T10:03:24.625Z,1.60
2022-08-25T10:04:21.037Z,2.60
2022-08-25T10:05:23.277Z,2.00
2022-08-25T10:06:20.979Z,2.00
2022-08-25T10:07:20.945Z,1.90
2022-08-25T10:08:24.641Z,2.10
2022-08-25T10:09:20.927Z,2.00
2022-08-25T10:10:20.939Z,1.60
2022-08-25T10:11:20.915Z,1.70
2022-08-25T10:12:21.113Z,1.80
2022-08-25T10:13:22.679Z,1.90
2022-08-25T10:14:20.877Z,2.50
2022-08-25T10:15:29.818Z,1.80
2022-08-25T10:16:24.885Z,1.70
2022-08-25T10:17:20.838Z,1.70
2022-08-25T10:18:20.842Z,1.90
2022-08-25T10:19:20.812Z,1.90
2022-08-25T10:20:20.825Z,2.20
2022-08-25T10:21:20.804Z,2.10
2022-08-25T10:22:20.782Z,1.80
2022-08-25T10:23:20.773Z,2.20
2022-08-25T10:24:20.773Z,2.00
2022-08-25T10:25:20.760Z,2.30
2022-08-25T10:26:20.781Z,1.70
2022-08-25T10:27:20.732Z,1.70
2022-08-25T10:28:20.732Z,1.90
2022-08-25T10:29:20.714Z,1.60
2022-08-25T10:30:20.691Z,1.60
2022-08-25T10:31:20.711Z,1.70
2022-08-25T10:32:20.674Z,1.80
2022-08-25T10:33:20.662Z,1.80
2022-08-25T10:34:20.665Z,2.00
2022-08-25T10:35:20.640Z,1.90
2022-08-25T10:36:21.366Z,1.90
2022-08-25T10:37:20.657Z,2.00
2022-08-25T10:38:21.960Z,2.00
2022-08-25T10:39:34.659Z,2.00
2022-08-25T10:40:21.639Z,2.00
2022-08-25T10:41:20.577Z,2.00
2022-08-25T10:42:20.571Z,1.60
2022-08-25T10:43:23.770Z,2.20
2022-08-25T10:44:20.575Z,1.70
2022-08-25T10:45:21.967Z,1.80
2022-08-25T10:46:20.570Z,1.80
2022-08-25T10:47:20.511Z,1.70
2022-08-25T10:48:20.519Z,1.90
2022-08-25T10:49:20.489Z,1.70
2022-08-25T10:50:20.461Z,1.90
2022-08-25T10:51:24.890Z,2.30
2022-08-25T10:52:21.450Z,1.70
2022-08-25T10:53:20.444Z,2.20
2022-08-25T10:54:20.495Z,2.10
2022-08-25T10:55:20.422Z,1.90
2022-08-25T10:56:20.394Z,2.00
2022-08-25T10:57:20.402Z,2.10
2022-08-25T10:58:20.383Z,2.30
2022-08-25T10:59:20.412Z,2.00
2022-08-25T11:00:20.395Z,2.70
2022-08-25T11:01:20.415Z,2.50
2022-08-25T11:02:21.324Z,2.00
2022-08-25T11:03:20.323Z,2.40
2022-08-25T11:04:20.321Z,2.00
2022-08-25T11:05:24.506Z,2.10
2022-08-25T11:06:20.293Z,2.50
2022-08-25T11:07:20.274Z,1.90
2022-08-25T11:08:20.270Z,2.00
2022-08-25T11:09:20.274Z,1.80
2022-08-25T11:10:20.275Z,1.80
2022-08-25T11:11:20.243Z,2.30
2022-08-25T11:12:20.202Z,2.00
2022-08-25T11:13:20.212Z,2.80
2022-08-25T11:14:20.305Z,1.90
2022-08-25T11:15:20.189Z,1.70
2022-08-25T11:16:20.191Z,2.00
2022-08-25T11:17:20.247Z,2.20
2022-08-25T11:18:20.164Z,1.80
2022-08-25T11:19:20.170Z,2.20
2022-08-25T11:20:27.046Z,2.90
2022-08-25T11:21:22.081Z,1.90
2022-08-25T11:22:20.110Z,2.10
2022-08-25T11:23:20.127Z,1.90
2022-08-25T11:24:20.079Z,2.10
2022-08-25T11:25:20.142Z,2.20
2022-08-25T11:26:20.062Z,2.10
2022-08-25T11:27:21.562Z,2.00
2022-08-25T11:28:20.031Z,2.40
2022-08-25T11:29:20.067Z,1.90
2022-08-25T11:30:20.039Z,1.80
2022-08-25T11:31:20.049Z,1.80
2022-08-25T11:32:19.995Z,1.90
2022-08-25T11:33:19.992Z,2.20
2022-08-25T11:34:19.973Z,1.80
2022-08-25T11:35:19.985Z,1.90
2022-08-25T11:36:19.966Z,2.00
2022-08-25T11:37:19.953Z,1.90
2022-08-25T11:38:19.940Z,1.60
2022-08-25T11:39:19.934Z,1.70
2022-08-25T11:40:19.997Z,1.70
2022-08-25T11:41:19.916Z,1.70
2022-08-25T11:42:19.878Z,1.80
2022-08-25T11:43:19.868Z,1.40
2022-08-25T11:44:19.862Z,1.50
2022-08-25T11:45:19.889Z,1.70
2022-08-25T11:46:19.914Z,1.60
2022-08-25T11:47:21.426Z,1.80
2022-08-25T11:48:19.810Z,1.70
2022-08-25T11:49:19.865Z,1.40
2022-08-25T11:50:19.836Z,1.50
2022-08-25T11:51:19.809Z,1.40
2022-08-25T11:52:19.819Z,1.20
2022-08-25T11:53:26.751Z,1.70
2022-08-25T11:54:20.753Z,1.50
2022-08-25T11:55:22.853Z,1.50
2022-08-25T11:56:19.748Z,1.40
2022-08-25T11:57:19.719Z,1.60
2022-08-25T11:58:19.710Z,1.20
2022-08-25T11:59:19.691Z,1.30
2022-08-25T12:00:19.681Z,1.20
2022-08-25T12:01:19.682Z,1.30
2022-08-25T12:02:19.652Z,1.40
2022-08-25T12:03:19.653Z,1.50
2022-08-25T12:04:19.678Z,1.80
2022-08-25T12:05:19.862Z,1.40
2022-08-25T12:06:19.631Z,1.30
2022-08-25T12:07:19.608Z,1.40
2022-08-25T12:08:19.611Z,1.40
2022-08-25T12:09:19.593Z,1.50
2022-08-25T12:10:19.557Z,1.30
2022-08-25T12:11:19.553Z,1.50
2022-08-25T12:12:19.574Z,1.30
2022-08-25T12:13:19.547Z,1.70
2022-08-25T12:14:19.516Z,1.90
2022-08-25T12:15:19.535Z,1.30
2022-08-25T12:16:19.526Z,1.60
2022-08-25T12:17:19.505Z,1.60
2022-08-25T12:18:19.497Z,1.50
2022-08-25T12:19:19.481Z,1.30
2022-08-25T12:20:19.455Z,1.50
2022-08-25T12:21:19.448Z,1.20
2022-08-25T12:22:19.439Z,1.20
2022-08-25T12:23:19.419Z,1.30
2022-08-25T12:24:19.428Z,1.30
2022-08-25T12:25:19.400Z,1.10
2022-08-25T12:26:19.396Z,1.10
2022-08-25T12:27:19.399Z,1.20
2022-08-25T12:28:19.487Z,1.30
2022-08-25T12:29:19.359Z,1.30
2022-08-25T12:30:20.954Z,1.40
2022-08-25T12:31:19.413Z,1.20
2022-08-25T12:32:19.352Z,1.30
2022-08-25T12:33:19.311Z,1.40
2022-08-25T12:34:19.300Z,1.50
2022-08-25T12:35:20.288Z,1.50
2022-08-25T12:36:19.294Z,1.30
2022-08-25T12:37:19.280Z,1.60
2022-08-25T12:38:19.289Z,1.30
2022-08-25T12:39:19.247Z,1.40
2022-08-25T12:40:20.296Z,1.30
2022-08-25T12:41:19.238Z,1.80
2022-08-25T12:42:21.983Z,1.40
2022-08-25T12:43:20.241Z,1.20
2022-08-25T12:44:19.186Z,1.50
2022-08-25T12:45:19.186Z,1.40
2022-08-25T12:46:19.248Z,1.30
2022-08-25T12:47:19.159Z,1.20
2022-08-25T12:48:19.151Z,1.20
2022-08-25T12:49:19.156Z,1.10
2022-08-25T12:50:19.123Z,1.20
2022-08-25T12:51:19.110Z,1.10
2022-08-25T12:52:19.103Z,1.30
2022-08-25T12:53:19.098Z,1.20
2022-08-25T12:54:22.355Z,1.30
2022-08-25T12:55:19.092Z,1.20
2022-08-25T12:56:19.057Z,1.40
2022-08-25T12:57:19.060Z,1.10
2022-08-25T12:58:20.069Z,1.10
2022-08-25T12:59:19.016Z,1.30
2022-08-25T13:00:19.076Z,1.40
2022-08-25T13:01:35.925Z,1.20
2022-08-25T13:02:20.076Z,1.40
2022-08-25T13:03:19.053Z,1.30
2022-08-25T13:04:18.976Z,1.20
2022-08-25T13:05:18.949Z,1.60
2022-08-25T13:06:18.957Z,1.20
2022-08-25T13:07:18.951Z,1.40
2022-08-25T13:08:18.911Z,1.30
2022-08-25T13:09:18.910Z,1.10
2022-08-25T13:10:18.880Z,2.00
2022-08-25T13:11:20.381Z,1.40
2022-08-25T13:12:18.869Z,1.30
2022-08-25T13:13:18.862Z,1.60
2022-08-25T13:14:18.909Z,1.10
2022-08-25T13:15:18.839Z,1.60
2022-08-25T13:16:18.880Z,1.20
2022-08-25T13:17:18.831Z,1.40
2022-08-25T13:18:18.801Z,1.20
2022-08-25T13:19:18.806Z,1.00
2022-08-25T13:20:18.786Z,1.20
2022-08-25T13:21:18.755Z,1.70